sensor_id;sensor_type;location;lat;lon;timestamp;temperature;humidity
52016;DHT22;38032;53.326;6.472;2022-10-18T00:01:40;14.00;99.90
52016;DHT22;38032;53.326;6.472;2022-10-18T00:04:06;14.00;99.90
52016;DHT22;38032;53.326;6.472;2022-10-18T00:06:31;14.00;99.90
52016;DHT22;38032;53.326;6.472;2022-10-18T00:08:57;14.00;99.90
52016;DHT22;38032;53.326;6.472;2022-10-18T00:11:23;14.00;99.90
52016;DHT22;38032;53.326;6.472;2022-10-18T00:13:49;14.00;99.90
52016;DHT22;38032;53.326;6.472;2022-10-18T00:16:16;14.00;99.90
52016;DHT22;38032;53.326;6.472;2022-10-18T00:18:42;13.90;99.90
52016;DHT22;38032;53.326;6.472;2022-10-18T00:21:12;13.90;99.90
52016;DHT22;38032;53.326;6.472;2022-10-18T00:23:38;13.90;99.90
52016;DHT22;38032;53.326;6.472;2022-10-18T00:26:11;13.90;99.90
52016;DHT22;38032;53.326;6.472;2022-10-18T00:28:38;13.90;99.90
52016;DHT22;38032;53.326;6.472;2022-10-18T00:31:14;13.90;99.90
52016;DHT22;38032;53.326;6.472;2022-10-18T00:33:42;13.90;99.90
52016;DHT22;38032;53.326;6.472;2022-10-18T00:36:09;13.90;99.90
52016;DHT22;38032;53.326;6.472;2022-10-18T00:38:35;13.90;99.90
52016;DHT22;38032;53.326;6.472;2022-10-18T00:41:01;13.80;99.90
52016;DHT22;38032;53.326;6.472;2022-10-18T00:43:27;13.80;99.90
52016;DHT22;38032;53.326;6.472;2022-10-18T00:45:53;13.90;99.90
52016;DHT22;38032;53.326;6.472;2022-10-18T00:48:19;13.80;99.90
52016;DHT22;38032;53.326;6.472;2022-10-18T00:50:47;13.80;99.90
52016;DHT22;38032;53.326;6.472;2022-10-18T00:53:17;13.80;99.90
52016;DHT22;38032;53.326;6.472;2022-10-18T00:55:43;13.80;99.90
52016;DHT22;38032;53.326;6.472;2022-10-18T00:58:11;13.70;99.90
52016;DHT22;38032;53.326;6.472;2022-10-18T01:00:41;13.70;99.90
52016;DHT22;38032;53.326;6.472;2022-10-18T01:03:07;13.20;99.90
52016;DHT22;38032;53.326;6.472;2022-10-18T01:05:37;13.70;99.90
52016;DHT22;38032;53.326;6.472;2022-10-18T01:13:36;13.70;99.90
52016;DHT22;38032;53.326;6.472;2022-10-18T01:16:27;13.70;99.90
52016;DHT22;38032;53.326;6.472;2022-10-18T01:24:36;13.70;99.90
52016;DHT22;38032;53.326;6.472;2022-10-18T01:27:29;13.70;99.90
52016;DHT22;38032;53.326;6.472;2022-10-18T01:32:34;13.70;99.90
52016;DHT22;38032;53.326;6.472;2022-10-18T01:35:06;13.70;99.90
52016;DHT22;38032;53.326;6.472;2022-10-18T01:37:34;13.70;99.90
52016;DHT22;38032;53.326;6.472;2022-10-18T01:40:02;13.70;99.90
52016;DHT22;38032;53.326;6.472;2022-10-18T01:42:31;13.70;99.90
52016;DHT22;38032;53.326;6.472;2022-10-18T01:44:58;13.70;99.90
52016;DHT22;38032;53.326;6.472;2022-10-18T01:47:26;13.70;99.90
52016;DHT22;38032;53.326;6.472;2022-10-18T01:49:58;13.70;99.90
52016;DHT22;38032;53.326;6.472;2022-10-18T01:52:24;13.70;99.90
52016;DHT22;38032;53.326;6.472;2022-10-18T01:54:50;13.70;99.90
52016;DHT22;38032;53.326;6.472;2022-10-18T01:59:55;13.70;99.90
52016;DHT22;38032;53.326;6.472;2022-10-18T02:02:41;13.70;99.90
52016;DHT22;38032;53.326;6.472;2022-10-18T02:05:26;13.70;99.90
52016;DHT22;38032;53.326;6.472;2022-10-18T02:08:05;13.70;99.90
52016;DHT22;38032;53.326;6.472;2022-10-18T02:10:37;13.70;99.90
52016;DHT22;38032;53.326;6.472;2022-10-18T02:13:05;13.70;99.90
52016;DHT22;38032;53.326;6.472;2022-10-18T02:15:36;13.70;99.90
52016;DHT22;38032;53.326;6.472;2022-10-18T02:18:07;13.70;99.90
52016;DHT22;38032;53.326;6.472;2022-10-18T02:20:35;13.70;99.90
52016;DHT22;38032;53.326;6.472;2022-10-18T02:23:05;13.70;99.90
52016;DHT22;38032;53.326;6.472;2022-10-18T02:25:33;13.70;99.90
52016;DHT22;38032;53.326;6.472;2022-10-18T02:28:00;13.70;99.90
52016;DHT22;38032;53.326;6.472;2022-10-18T02:30:34;13.70;99.90
52016;DHT22;38032;53.326;6.472;2022-10-18T02:33:12;13.70;99.90
52016;DHT22;38032;53.326;6.472;2022-10-18T02:35:44;13.70;99.90
52016;DHT22;38032;53.326;6.472;2022-10-18T02:38:13;13.70;99.90
52016;DHT22;38032;53.326;6.472;2022-10-18T02:40:39;13.70;99.90
52016;DHT22;38032;53.326;6.472;2022-10-18T02:43:06;13.70;99.90
52016;DHT22;38032;53.326;6.472;2022-10-18T02:45:32;13.70;99.90
52016;DHT22;38032;53.326;6.472;2022-10-18T02:47:58;13.70;99.90
52016;DHT22;38032;53.326;6.472;2022-10-18T02:50:24;13.70;99.90
52016;DHT22;38032;53.326;6.472;2022-10-18T02:52:49;13.70;99.90
52016;DHT22;38032;53.326;6.472;2022-10-18T02:55:15;13.70;99.90
52016;DHT22;38032;53.326;6.472;2022-10-18T02:57:41;13.60;99.90
52016;DHT22;38032;53.326;6.472;2022-10-18T03:00:08;13.60;99.90
52016;DHT22;38032;53.326;6.472;2022-10-18T03:02:34;13.60;99.90
52016;DHT22;38032;53.326;6.472;2022-10-18T03:04:59;13.60;99.90
52016;DHT22;38032;53.326;6.472;2022-10-18T03:07:25;13.60;99.90
52016;DHT22;38032;53.326;6.472;2022-10-18T03:09:51;13.60;99.90
52016;DHT22;38032;53.326;6.472;2022-10-18T03:12:17;13.60;99.90
52016;DHT22;38032;53.326;6.472;2022-10-18T03:14:43;13.60;99.90
52016;DHT22;38032;53.326;6.472;2022-10-18T03:17:09;13.60;99.90
52016;DHT22;38032;53.326;6.472;2022-10-18T03:19:35;13.50;99.90
52016;DHT22;38032;53.326;6.472;2022-10-18T03:22:00;13.60;99.90
52016;DHT22;38032;53.326;6.472;2022-10-18T03:24:26;13.50;99.90
52016;DHT22;38032;53.326;6.472;2022-10-18T03:26:52;13.50;99.90
52016;DHT22;38032;53.326;6.472;2022-10-18T03:29:18;13.50;99.90
52016;DHT22;38032;53.326;6.472;2022-10-18T03:31:43;13.50;99.90
52016;DHT22;38032;53.326;6.472;2022-10-18T03:34:09;13.50;99.90
52016;DHT22;38032;53.326;6.472;2022-10-18T03:36:35;13.50;99.90
52016;DHT22;38032;53.326;6.472;2022-10-18T03:39:01;13.50;99.90
52016;DHT22;38032;53.326;6.472;2022-10-18T03:41:27;13.50;99.90
52016;DHT22;38032;53.326;6.472;2022-10-18T03:43:53;13.50;99.90
52016;DHT22;38032;53.326;6.472;2022-10-18T03:46:18;13.50;99.90
52016;DHT22;38032;53.326;6.472;2022-10-18T03:48:44;13.50;99.90
52016;DHT22;38032;53.326;6.472;2022-10-18T03:51:10;13.40;99.90
52016;DHT22;38032;53.326;6.472;2022-10-18T03:53:36;13.40;99.90
52016;DHT22;38032;53.326;6.472;2022-10-18T03:56:02;13.40;99.90
52016;DHT22;38032;53.326;6.472;2022-10-18T03:58:27;13.40;99.90
52016;DHT22;38032;53.326;6.472;2022-10-18T04:00:54;13.40;99.90
52016;DHT22;38032;53.326;6.472;2022-10-18T04:03:21;13.40;99.90
52016;DHT22;38032;53.326;6.472;2022-10-18T04:05:48;13.40;99.90
52016;DHT22;38032;53.326;6.472;2022-10-18T04:08:15;13.40;99.90
52016;DHT22;38032;53.326;6.472;2022-10-18T04:10:41;13.30;99.90
52016;DHT22;38032;53.326;6.472;2022-10-18T04:13:07;13.30;99.90
52016;DHT22;38032;53.326;6.472;2022-10-18T04:15:33;13.30;99.90
52016;DHT22;38032;53.326;6.472;2022-10-18T04:17:59;13.30;99.90
52016;DHT22;38032;53.326;6.472;2022-10-18T04:20:25;13.20;99.90
52016;DHT22;38032;53.326;6.472;2022-10-18T04:22:52;13.20;99.90
52016;DHT22;38032;53.326;6.472;2022-10-18T04:25:20;13.20;99.90
52016;DHT22;38032;53.326;6.472;2022-10-18T04:27:46;13.20;99.90
52016;DHT22;38032;53.326;6.472;2022-10-18T04:30:12;13.20;99.90
52016;DHT22;38032;53.326;6.472;2022-10-18T04:32:38;13.20;99.90
52016;DHT22;38032;53.326;6.472;2022-10-18T04:35:05;13.20;99.90
52016;DHT22;38032;53.326;6.472;2022-10-18T04:37:31;13.20;99.90
52016;DHT22;38032;53.326;6.472;2022-10-18T04:39:57;13.20;99.90
52016;DHT22;38032;53.326;6.472;2022-10-18T04:42:23;13.20;99.90
52016;DHT22;38032;53.326;6.472;2022-10-18T04:44:49;13.20;99.90
52016;DHT22;38032;53.326;6.472;2022-10-18T04:47:15;13.10;99.90
52016;DHT22;38032;53.326;6.472;2022-10-18T04:49:41;13.10;99.90
52016;DHT22;38032;53.326;6.472;2022-10-18T04:52:07;13.10;99.90
52016;DHT22;38032;53.326;6.472;2022-10-18T04:54:33;13.00;99.90
52016;DHT22;38032;53.326;6.472;2022-10-18T04:56:59;13.00;99.90
52016;DHT22;38032;53.326;6.472;2022-10-18T04:59:25;13.00;99.90
52016;DHT22;38032;53.326;6.472;2022-10-18T05:01:50;13.00;99.90
52016;DHT22;38032;53.326;6.472;2022-10-18T05:04:16;13.00;99.90
52016;DHT22;38032;53.326;6.472;2022-10-18T05:06:42;13.00;99.90
52016;DHT22;38032;53.326;6.472;2022-10-18T05:09:08;12.90;99.90
52016;DHT22;38032;53.326;6.472;2022-10-18T05:11:34;12.90;99.90
52016;DHT22;38032;53.326;6.472;2022-10-18T05:13:59;12.90;99.90
52016;DHT22;38032;53.326;6.472;2022-10-18T05:16:25;12.90;99.90
52016;DHT22;38032;53.326;6.472;2022-10-18T05:18:53;12.90;99.90
52016;DHT22;38032;53.326;6.472;2022-10-18T05:21:19;12.90;99.90
52016;DHT22;38032;53.326;6.472;2022-10-18T05:23:44;12.80;99.90
52016;DHT22;38032;53.326;6.472;2022-10-18T05:26:10;12.80;99.90
52016;DHT22;38032;53.326;6.472;2022-10-18T05:28:36;12.80;99.90
52016;DHT22;38032;53.326;6.472;2022-10-18T05:31:05;12.80;99.90
52016;DHT22;38032;53.326;6.472;2022-10-18T05:33:31;12.70;99.90
52016;DHT22;38032;53.326;6.472;2022-10-18T05:35:58;12.70;99.90
52016;DHT22;38032;53.326;6.472;2022-10-18T05:38:24;12.70;99.90
52016;DHT22;38032;53.326;6.472;2022-10-18T05:40:49;12.70;99.90
52016;DHT22;38032;53.326;6.472;2022-10-18T05:43:15;12.60;99.90
52016;DHT22;38032;53.326;6.472;2022-10-18T05:45:49;12.60;99.90
52016;DHT22;38032;53.326;6.472;2022-10-18T05:48:15;12.60;99.90
52016;DHT22;38032;53.326;6.472;2022-10-18T05:50:42;12.50;99.90
52016;DHT22;38032;53.326;6.472;2022-10-18T05:53:08;12.40;99.90
52016;DHT22;38032;53.326;6.472;2022-10-18T05:55:34;12.40;99.90
52016;DHT22;38032;53.326;6.472;2022-10-18T05:57:59;12.40;99.90
52016;DHT22;38032;53.326;6.472;2022-10-18T06:00:26;12.40;99.90
52016;DHT22;38032;53.326;6.472;2022-10-18T06:02:52;12.40;99.90
52016;DHT22;38032;53.326;6.472;2022-10-18T06:05:17;12.30;99.90
52016;DHT22;38032;53.326;6.472;2022-10-18T06:07:43;12.30;99.90
52016;DHT22;38032;53.326;6.472;2022-10-18T06:10:09;12.30;99.90
52016;DHT22;38032;53.326;6.472;2022-10-18T06:12:35;12.20;99.90
52016;DHT22;38032;53.326;6.472;2022-10-18T06:15:00;12.20;99.90
52016;DHT22;38032;53.326;6.472;2022-10-18T06:17:26;12.10;99.90
52016;DHT22;38032;53.326;6.472;2022-10-18T06:19:52;12.10;99.90
52016;DHT22;38032;53.326;6.472;2022-10-18T06:22:18;12.10;99.90
52016;DHT22;38032;53.326;6.472;2022-10-18T06:24:44;12.00;99.90
52016;DHT22;38032;53.326;6.472;2022-10-18T06:27:09;12.00;99.90
52016;DHT22;38032;53.326;6.472;2022-10-18T06:29:36;12.00;99.90
52016;DHT22;38032;53.326;6.472;2022-10-18T06:32:03;11.90;99.90
52016;DHT22;38032;53.326;6.472;2022-10-18T06:34:30;11.80;99.90
52016;DHT22;38032;53.326;6.472;2022-10-18T06:36:55;12.00;99.90
52016;DHT22;38032;53.326;6.472;2022-10-18T06:39:21;11.80;99.90
52016;DHT22;38032;53.326;6.472;2022-10-18T06:41:47;11.80;99.90
52016;DHT22;38032;53.326;6.472;2022-10-18T06:44:13;11.80;99.90
52016;DHT22;38032;53.326;6.472;2022-10-18T06:46:40;11.70;99.90
52016;DHT22;38032;53.326;6.472;2022-10-18T06:49:06;11.70;99.90
52016;DHT22;38032;53.326;6.472;2022-10-18T06:51:32;11.70;99.90
52016;DHT22;38032;53.326;6.472;2022-10-18T06:53:58;11.60;99.90
52016;DHT22;38032;53.326;6.472;2022-10-18T06:56:24;11.60;99.90
52016;DHT22;38032;53.326;6.472;2022-10-18T06:58:50;11.60;99.90
52016;DHT22;38032;53.326;6.472;2022-10-18T07:01:17;11.60;99.90
52016;DHT22;38032;53.326;6.472;2022-10-18T07:03:44;11.60;99.90
52016;DHT22;38032;53.326;6.472;2022-10-18T07:06:12;11.60;99.90
52016;DHT22;38032;53.326;6.472;2022-10-18T07:08:38;11.60;99.90
52016;DHT22;38032;53.326;6.472;2022-10-18T07:11:06;11.50;99.90
52016;DHT22;38032;53.326;6.472;2022-10-18T07:13:33;11.50;99.90
52016;DHT22;38032;53.326;6.472;2022-10-18T07:16:06;11.60;99.90
52016;DHT22;38032;53.326;6.472;2022-10-18T07:18:36;11.60;99.90
52016;DHT22;38032;53.326;6.472;2022-10-18T07:21:04;11.70;99.90
52016;DHT22;38032;53.326;6.472;2022-10-18T07:23:33;11.70;99.90
52016;DHT22;38032;53.326;6.472;2022-10-18T07:25:59;11.80;99.90
52016;DHT22;38032;53.326;6.472;2022-10-18T07:28:26;11.80;99.90
52016;DHT22;38032;53.326;6.472;2022-10-18T07:30:53;11.90;99.90
52016;DHT22;38032;53.326;6.472;2022-10-18T07:33:19;11.90;99.90
52016;DHT22;38032;53.326;6.472;2022-10-18T07:35:46;11.90;99.90
52016;DHT22;38032;53.326;6.472;2022-10-18T07:38:12;12.00;99.90
52016;DHT22;38032;53.326;6.472;2022-10-18T07:40:38;12.00;99.90
52016;DHT22;38032;53.326;6.472;2022-10-18T07:43:04;12.00;99.90
52016;DHT22;38032;53.326;6.472;2022-10-18T07:45:31;12.00;99.90
52016;DHT22;38032;53.326;6.472;2022-10-18T07:47:57;12.00;99.90
52016;DHT22;38032;53.326;6.472;2022-10-18T07:50:23;12.10;99.90
52016;DHT22;38032;53.326;6.472;2022-10-18T07:52:49;12.10;99.90
52016;DHT22;38032;53.326;6.472;2022-10-18T07:55:15;12.20;99.90
52016;DHT22;38032;53.326;6.472;2022-10-18T07:57:40;12.20;99.90
52016;DHT22;38032;53.326;6.472;2022-10-18T08:00:07;12.20;99.90
52016;DHT22;38032;53.326;6.472;2022-10-18T08:02:33;12.30;99.90
52016;DHT22;38032;53.326;6.472;2022-10-18T08:04:59;12.40;99.90
52016;DHT22;38032;53.326;6.472;2022-10-18T08:07:25;12.40;99.90
52016;DHT22;38032;53.326;6.472;2022-10-18T08:09:51;12.60;99.90
52016;DHT22;38032;53.326;6.472;2022-10-18T08:12:17;12.60;99.90
52016;DHT22;38032;53.326;6.472;2022-10-18T08:14:43;12.70;99.90
52016;DHT22;38032;53.326;6.472;2022-10-18T08:17:09;12.80;99.90
52016;DHT22;38032;53.326;6.472;2022-10-18T08:19:34;13.00;99.90
52016;DHT22;38032;53.326;6.472;2022-10-18T08:22:00;13.20;99.90
52016;DHT22;38032;53.326;6.472;2022-10-18T08:24:26;13.30;99.90
52016;DHT22;38032;53.326;6.472;2022-10-18T08:26:52;13.90;99.90
52016;DHT22;38032;53.326;6.472;2022-10-18T08:29:18;14.20;99.90
52016;DHT22;38032;53.326;6.472;2022-10-18T08:31:49;14.20;99.90
52016;DHT22;38032;53.326;6.472;2022-10-18T08:34:15;14.40;99.90
52016;DHT22;38032;53.326;6.472;2022-10-18T08:36:41;14.70;99.90
52016;DHT22;38032;53.326;6.472;2022-10-18T08:39:07;14.80;99.90
52016;DHT22;38032;53.326;6.472;2022-10-18T08:44:15;16.20;99.90
52016;DHT22;38032;53.326;6.472;2022-10-18T08:46:45;16.80;99.90
52016;DHT22;38032;53.326;6.472;2022-10-18T08:49:24;17.20;99.90
52016;DHT22;38032;53.326;6.472;2022-10-18T08:51:54;18.30;99.90
52016;DHT22;38032;53.326;6.472;2022-10-18T08:54:26;18.90;99.90
52016;DHT22;38032;53.326;6.472;2022-10-18T08:57:00;19.70;99.90
52016;DHT22;38032;53.326;6.472;2022-10-18T08:59:38;20.20;99.90
52016;DHT22;38032;53.326;6.472;2022-10-18T09:07:16;24.50;99.90
52016;DHT22;38032;53.326;6.472;2022-10-18T09:12:43;26.80;99.90
52016;DHT22;38032;53.326;6.472;2022-10-18T09:15:30;28.00;95.50
52016;DHT22;38032;53.326;6.472;2022-10-18T09:18:14;29.20;90.90
52016;DHT22;38032;53.326;6.472;2022-10-18T09:20:57;30.00;79.40
52016;DHT22;38032;53.326;6.472;2022-10-18T09:23:40;31.00;80.50
52016;DHT22;38032;53.326;6.472;2022-10-18T09:26:15;31.60;75.00
52016;DHT22;38032;53.326;6.472;2022-10-18T09:31:50;32.80;67.30
52016;DHT22;38032;53.326;6.472;2022-10-18T09:34:37;33.30;65.60
52016;DHT22;38032;53.326;6.472;2022-10-18T09:37:04;33.70;62.80
52016;DHT22;38032;53.326;6.472;2022-10-18T09:39:37;34.10;62.10
52016;DHT22;38032;53.326;6.472;2022-10-18T09:42:17;34.30;60.20
52016;DHT22;38032;53.326;6.472;2022-10-18T09:44:57;34.60;58.40
52016;DHT22;38032;53.326;6.472;2022-10-18T09:47:27;34.80;58.10
52016;DHT22;38032;53.326;6.472;2022-10-18T09:49:58;34.90;58.60
52016;DHT22;38032;53.326;6.472;2022-10-18T09:52:35;35.00;58.30
52016;DHT22;38032;53.326;6.472;2022-10-18T09:55:07;35.10;57.30
52016;DHT22;38032;53.326;6.472;2022-10-18T09:57:40;35.10;56.20
52016;DHT22;38032;53.326;6.472;2022-10-18T10:00:15;35.00;56.40
52016;DHT22;38032;53.326;6.472;2022-10-18T10:02:42;35.00;56.00
52016;DHT22;38032;53.326;6.472;2022-10-18T10:05:12;35.10;55.50
52016;DHT22;38032;53.326;6.472;2022-10-18T10:07:43;35.10;55.70
52016;DHT22;38032;53.326;6.472;2022-10-18T10:10:19;35.10;55.40
52016;DHT22;38032;53.326;6.472;2022-10-18T10:12:46;34.90;54.50
52016;DHT22;38032;53.326;6.472;2022-10-18T10:15:19;34.50;53.80
52016;DHT22;38032;53.326;6.472;2022-10-18T10:18:03;33.90;54.00
52016;DHT22;38032;53.326;6.472;2022-10-18T10:20:36;33.30;54.10
52016;DHT22;38032;53.326;6.472;2022-10-18T10:25:39;31.70;54.70
52016;DHT22;38032;53.326;6.472;2022-10-18T10:28:12;31.20;56.10
52016;DHT22;38032;53.326;6.472;2022-10-18T10:30:40;31.90;80.50
52016;DHT22;38032;53.326;6.472;2022-10-18T10:33:08;29.90;59.50
52016;DHT22;38032;53.326;6.472;2022-10-18T10:36:16;29.50;57.90
52016;DHT22;38032;53.326;6.472;2022-10-18T11:28:54;23.40;64.50
52016;DHT22;38032;53.326;6.472;2022-10-18T11:34:17;23.60;65.60
52016;DHT22;38032;53.326;6.472;2022-10-18T11:37:04;23.30;66.10
52016;DHT22;38032;53.326;6.472;2022-10-18T12:48:05;21.00;90.30
52016;DHT22;38032;53.326;6.472;2022-10-18T14:28:40;19.60;98.30
52016;DHT22;38032;53.326;6.472;2022-10-18T14:34:21;17.30;98.10
52016;DHT22;38032;53.326;6.472;2022-10-18T14:37:32;18.50;99.90
52016;DHT22;38032;53.326;6.472;2022-10-18T15:07:06;17.80;99.00
52016;DHT22;38032;53.326;6.472;2022-10-18T15:14:12;18.30;99.40
52016;DHT22;38032;53.326;6.472;2022-10-18T15:16:39;17.60;99.40
52016;DHT22;38032;53.326;6.472;2022-10-18T15:19:34;16.90;99.90
52016;DHT22;38032;53.326;6.472;2022-10-18T15:22:21;18.30;99.90
52016;DHT22;38032;53.326;6.472;2022-10-18T15:27:41;17.40;99.90
52016;DHT22;38032;53.326;6.472;2022-10-18T15:30:17;17.30;99.90
52016;DHT22;38032;53.326;6.472;2022-10-18T15:32:50;17.30;99.90
52016;DHT22;38032;53.326;6.472;2022-10-18T15:35:21;17.30;99.90
52016;DHT22;38032;53.326;6.472;2022-10-18T15:37:47;17.20;99.90
52016;DHT22;38032;53.326;6.472;2022-10-18T15:42:48;17.20;99.90
52016;DHT22;38032;53.326;6.472;2022-10-18T15:50:44;17.00;99.90
52016;DHT22;38032;53.326;6.472;2022-10-18T15:55:52;16.90;99.90
52016;DHT22;38032;53.326;6.472;2022-10-18T15:58:27;16.90;99.90
52016;DHT22;38032;53.326;6.472;2022-10-18T16:00:58;16.80;99.90
52016;DHT22;38032;53.326;6.472;2022-10-18T16:09:40;17.00;99.90
52016;DHT22;38032;53.326;6.472;2022-10-18T16:13:13;15.30;99.90
52016;DHT22;38032;53.326;6.472;2022-10-18T16:18:15;16.40;99.90
52016;DHT22;38032;53.326;6.472;2022-10-18T16:20:43;16.70;99.90
52016;DHT22;38032;53.326;6.472;2022-10-18T16:23:33;16.40;99.90
52016;DHT22;38032;53.326;6.472;2022-10-18T16:25:59;16.20;99.90
52016;DHT22;38032;53.326;6.472;2022-10-18T16:28:25;16.20;99.90
52016;DHT22;38032;53.326;6.472;2022-10-18T16:30:55;16.50;99.90
52016;DHT22;38032;53.326;6.472;2022-10-18T16:33:21;16.10;99.90
52016;DHT22;38032;53.326;6.472;2022-10-18T16:35:48;16.10;99.90
52016;DHT22;38032;53.326;6.472;2022-10-18T16:38:27;16.00;99.90
52016;DHT22;38032;53.326;6.472;2022-10-18T16:40:53;16.00;99.90
52016;DHT22;38032;53.326;6.472;2022-10-18T16:43:19;16.00;99.90
52016;DHT22;38032;53.326;6.472;2022-10-18T16:45:45;15.90;99.90
52016;DHT22;38032;53.326;6.472;2022-10-18T16:48:14;15.90;99.90
52016;DHT22;38032;53.326;6.472;2022-10-18T16:50:40;15.90;99.90
52016;DHT22;38032;53.326;6.472;2022-10-18T16:53:06;15.80;99.90
52016;DHT22;38032;53.326;6.472;2022-10-18T16:55:31;15.80;99.90
52016;DHT22;38032;53.326;6.472;2022-10-18T16:57:58;15.80;99.90
52016;DHT22;38032;53.326;6.472;2022-10-18T17:00:24;15.70;99.90
52016;DHT22;38032;53.326;6.472;2022-10-18T17:02:50;15.70;99.90
52016;DHT22;38032;53.326;6.472;2022-10-18T17:05:17;15.70;99.90
52016;DHT22;38032;53.326;6.472;2022-10-18T17:07:44;15.70;99.90
52016;DHT22;38032;53.326;6.472;2022-10-18T17:10:13;15.60;99.90
52016;DHT22;38032;53.326;6.472;2022-10-18T17:12:40;15.60;99.90
52016;DHT22;38032;53.326;6.472;2022-10-18T17:15:06;15.60;99.90
52016;DHT22;38032;53.326;6.472;2022-10-18T17:17:34;15.50;99.90
52016;DHT22;38032;53.326;6.472;2022-10-18T17:20:00;15.50;99.90
52016;DHT22;38032;53.326;6.472;2022-10-18T17:22:26;15.50;99.90
52016;DHT22;38032;53.326;6.472;2022-10-18T17:24:52;15.40;99.90
52016;DHT22;38032;53.326;6.472;2022-10-18T17:27:18;15.40;99.90
52016;DHT22;38032;53.326;6.472;2022-10-18T17:29:43;15.40;99.90
52016;DHT22;38032;53.326;6.472;2022-10-18T17:32:09;15.40;99.90
52016;DHT22;38032;53.326;6.472;2022-10-18T17:34:35;15.40;99.90
52016;DHT22;38032;53.326;6.472;2022-10-18T17:37:02;15.40;99.90
52016;DHT22;38032;53.326;6.472;2022-10-18T17:39:28;15.40;99.90
52016;DHT22;38032;53.326;6.472;2022-10-18T17:41:54;15.40;99.90
52016;DHT22;38032;53.326;6.472;2022-10-18T17:44:21;15.40;99.90
52016;DHT22;38032;53.326;6.472;2022-10-18T17:46:47;15.30;99.90
52016;DHT22;38032;53.326;6.472;2022-10-18T17:49:13;15.30;99.90
52016;DHT22;38032;53.326;6.472;2022-10-18T17:51:40;15.20;99.90
52016;DHT22;38032;53.326;6.472;2022-10-18T17:54:07;15.20;99.90
52016;DHT22;38032;53.326;6.472;2022-10-18T17:56:34;15.20;99.90
52016;DHT22;38032;53.326;6.472;2022-10-18T17:59:00;15.20;99.90
52016;DHT22;38032;53.326;6.472;2022-10-18T18:01:26;15.10;99.90
52016;DHT22;38032;53.326;6.472;2022-10-18T18:03:56;15.20;99.90
52016;DHT22;38032;53.326;6.472;2022-10-18T18:06:24;15.10;99.90
52016;DHT22;38032;53.326;6.472;2022-10-18T18:09:00;15.10;99.90
52016;DHT22;38032;53.326;6.472;2022-10-18T18:11:27;15.10;99.90
52016;DHT22;38032;53.326;6.472;2022-10-18T18:13:54;15.10;99.90
52016;DHT22;38032;53.326;6.472;2022-10-18T18:16:23;15.10;99.90
52016;DHT22;38032;53.326;6.472;2022-10-18T18:18:51;15.10;99.90
52016;DHT22;38032;53.326;6.472;2022-10-18T18:21:17;15.00;99.90
52016;DHT22;38032;53.326;6.472;2022-10-18T18:23:44;15.00;99.90
52016;DHT22;38032;53.326;6.472;2022-10-18T18:26:10;15.00;99.90
52016;DHT22;38032;53.326;6.472;2022-10-18T18:28:36;14.90;99.90
52016;DHT22;38032;53.326;6.472;2022-10-18T18:31:07;14.90;99.90
52016;DHT22;38032;53.326;6.472;2022-10-18T18:33:34;14.90;99.90
52016;DHT22;38032;53.326;6.472;2022-10-18T18:36:00;14.90;99.90
52016;DHT22;38032;53.326;6.472;2022-10-18T18:38:27;14.80;99.90
52016;DHT22;38032;53.326;6.472;2022-10-18T18:41:03;14.80;99.90
52016;DHT22;38032;53.326;6.472;2022-10-18T18:43:29;14.80;99.90
52016;DHT22;38032;53.326;6.472;2022-10-18T18:45:55;14.80;99.90
52016;DHT22;38032;53.326;6.472;2022-10-18T18:48:24;14.70;99.90
52016;DHT22;38032;53.326;6.472;2022-10-18T18:50:53;14.80;99.90
52016;DHT22;38032;53.326;6.472;2022-10-18T18:53:19;14.70;99.90
52016;DHT22;38032;53.326;6.472;2022-10-18T18:55:45;14.70;99.90
52016;DHT22;38032;53.326;6.472;2022-10-18T18:58:34;14.70;99.90
52016;DHT22;38032;53.326;6.472;2022-10-18T19:04:18;14.70;99.90
52016;DHT22;38032;53.326;6.472;2022-10-18T19:11:29;15.00;99.90
52016;DHT22;38032;53.326;6.472;2022-10-18T19:13:57;14.80;99.90
52016;DHT22;38032;53.326;6.472;2022-10-18T19:16:25;14.70;99.90
52016;DHT22;38032;53.326;6.472;2022-10-18T19:21:20;14.70;99.90
52016;DHT22;38032;53.326;6.472;2022-10-18T19:23:46;14.70;99.90
52016;DHT22;38032;53.326;6.472;2022-10-18T19:26:17;14.70;99.90
52016;DHT22;38032;53.326;6.472;2022-10-18T19:28:45;14.70;99.90
52016;DHT22;38032;53.326;6.472;2022-10-18T19:31:11;14.70;99.90
52016;DHT22;38032;53.326;6.472;2022-10-18T19:33:37;14.70;99.90
52016;DHT22;38032;53.326;6.472;2022-10-18T19:36:03;14.80;99.90
52016;DHT22;38032;53.326;6.472;2022-10-18T19:38:29;14.70;99.90
52016;DHT22;38032;53.326;6.472;2022-10-18T19:40:55;14.70;99.90
52016;DHT22;38032;53.326;6.472;2022-10-18T19:43:21;14.70;99.90
52016;DHT22;38032;53.326;6.472;2022-10-18T19:45:46;14.60;99.90
52016;DHT22;38032;53.326;6.472;2022-10-18T19:48:12;14.60;99.90
52016;DHT22;38032;53.326;6.472;2022-10-18T19:50:38;14.60;99.90
52016;DHT22;38032;53.326;6.472;2022-10-18T19:53:04;14.50;99.90
52016;DHT22;38032;53.326;6.472;2022-10-18T19:55:32;14.50;99.90
52016;DHT22;38032;53.326;6.472;2022-10-18T19:57:58;14.40;99.90
52016;DHT22;38032;53.326;6.472;2022-10-18T20:00:24;14.40;99.90
52016;DHT22;38032;53.326;6.472;2022-10-18T20:02:50;14.30;99.90
52016;DHT22;38032;53.326;6.472;2022-10-18T20:05:16;14.30;99.90
52016;DHT22;38032;53.326;6.472;2022-10-18T20:07:42;14.30;99.90
52016;DHT22;38032;53.326;6.472;2022-10-18T20:10:10;14.30;99.90
52016;DHT22;38032;53.326;6.472;2022-10-18T20:12:36;14.20;99.90
52016;DHT22;38032;53.326;6.472;2022-10-18T20:15:03;14.20;99.90
52016;DHT22;38032;53.326;6.472;2022-10-18T20:17:30;14.10;99.90
52016;DHT22;38032;53.326;6.472;2022-10-18T20:19:56;14.10;99.90
52016;DHT22;38032;53.326;6.472;2022-10-18T20:22:22;14.10;99.90
52016;DHT22;38032;53.326;6.472;2022-10-18T20:24:48;14.00;99.90
52016;DHT22;38032;53.326;6.472;2022-10-18T20:27:14;14.00;99.90
52016;DHT22;38032;53.326;6.472;2022-10-18T20:29:40;14.00;99.90
52016;DHT22;38032;53.326;6.472;2022-10-18T20:32:06;13.90;99.90
52016;DHT22;38032;53.326;6.472;2022-10-18T20:34:33;13.80;99.90
52016;DHT22;38032;53.326;6.472;2022-10-18T20:36:59;13.80;99.90
52016;DHT22;38032;53.326;6.472;2022-10-18T20:39:25;13.80;99.90
52016;DHT22;38032;53.326;6.472;2022-10-18T20:41:51;13.80;99.90
52016;DHT22;38032;53.326;6.472;2022-10-18T20:44:17;13.70;99.90
52016;DHT22;38032;53.326;6.472;2022-10-18T20:46:45;13.70;99.90
52016;DHT22;38032;53.326;6.472;2022-10-18T20:49:14;13.60;99.90
52016;DHT22;38032;53.326;6.472;2022-10-18T20:51:41;13.60;99.90
52016;DHT22;38032;53.326;6.472;2022-10-18T20:54:07;13.50;99.90
52016;DHT22;38032;53.326;6.472;2022-10-18T20:56:33;13.40;99.90
52016;DHT22;38032;53.326;6.472;2022-10-18T20:59:01;13.40;99.90